createdAt,value
2018-07-30T00:00:45.435Z,55.30
2018-07-30T00:03:15.558Z,55.40
2018-07-30T00:05:45.638Z,55.50
2018-07-30T00:08:15.742Z,55.60
2018-07-30T00:10:45.910Z,55.70
2018-07-30T00:13:17.284Z,55.90
2018-07-30T00:15:47.349Z,56.00
2018-07-30T00:18:18.605Z,56.00
2018-07-30T00:20:48.705Z,56.20
2018-07-30T00:23:18.876Z,56.20
2018-07-30T00:25:49.116Z,56.30
2018-07-30T00:28:19.325Z,56.50
2018-07-30T00:30:49.347Z,56.80
2018-07-30T00:33:19.930Z,57.00
2018-07-30T00:35:50.188Z,57.80
2018-07-30T00:38:20.299Z,57.40
2018-07-30T00:40:50.516Z,57.50
2018-07-30T00:43:21.256Z,57.80
2018-07-30T00:45:51.341Z,57.90
2018-07-30T00:48:21.400Z,58.00
2018-07-30T00:50:51.522Z,58.00
2018-07-30T00:53:21.738Z,58.00
2018-07-30T00:55:52.096Z,58.10
2018-07-30T00:58:22.323Z,58.60
2018-07-30T01:00:52.431Z,58.00
2018-07-30T01:03:22.544Z,57.80
2018-07-30T01:05:52.725Z,58.00
2018-07-30T01:08:22.844Z,58.20
2018-07-30T01:10:52.964Z,58.50
2018-07-30T01:13:23.621Z,58.50
2018-07-30T01:15:53.779Z,58.60
2018-07-30T01:18:24.106Z,58.70
2018-07-30T01:20:55.460Z,58.90
2018-07-30T01:23:25.694Z,58.90
2018-07-30T01:25:55.792Z,59.60
2018-07-30T01:28:26.039Z,59.10
2018-07-30T01:30:56.080Z,59.20
2018-07-30T01:33:27.295Z,59.20
2018-07-30T01:35:57.490Z,59.30
2018-07-30T01:38:27.806Z,59.40
2018-07-30T01:40:57.932Z,59.50
2018-07-30T01:43:28.088Z,59.50
2018-07-30T01:45:58.185Z,59.50
2018-07-30T01:48:28.319Z,59.70
2018-07-30T01:50:58.403Z,59.80
2018-07-30T01:53:29.319Z,59.80
2018-07-30T01:55:59.939Z,59.80
2018-07-30T01:58:30.040Z,59.80
2018-07-30T02:01:00.113Z,59.80
2018-07-30T02:03:30.295Z,60.90
2018-07-30T02:06:00.525Z,60.20
2018-07-30T02:08:30.698Z,60.80
2018-07-30T02:11:00.798Z,60.50
2018-07-30T02:13:30.997Z,60.70
2018-07-30T02:16:01.620Z,60.80
2018-07-30T02:18:32.717Z,60.90
2018-07-30T02:21:02.883Z,60.90
2018-07-30T02:23:33.024Z,60.90
2018-07-30T02:26:03.213Z,60.90
2018-07-30T02:28:33.242Z,60.70
2018-07-30T02:31:04.107Z,61.20
2018-07-30T02:33:34.229Z,60.80
2018-07-30T02:36:04.483Z,60.90
2018-07-30T02:38:34.579Z,60.90
2018-07-30T02:41:04.780Z,61.10
2018-07-30T02:43:34.941Z,61.40
2018-07-30T02:46:05.365Z,61.80
2018-07-30T02:51:05.253Z,62.50
2018-07-30T02:53:35.758Z,62.70
2018-07-30T02:56:06.631Z,62.70
2018-07-30T02:58:37.429Z,63.00
2018-07-30T03:01:07.548Z,63.30
2018-07-30T03:03:37.712Z,63.50
2018-07-30T03:06:08.061Z,63.80
2018-07-30T03:08:38.215Z,64.10
2018-07-30T03:11:08.442Z,64.30
2018-07-30T03:13:38.539Z,64.50
2018-07-30T03:16:08.764Z,64.70
2018-07-30T03:18:38.932Z,64.90
2018-07-30T03:21:09.514Z,65.00
2018-07-30T03:23:39.596Z,65.10
2018-07-30T03:26:10.273Z,65.20
2018-07-30T03:28:41.002Z,65.30
2018-07-30T03:31:11.001Z,65.40
2018-07-30T03:33:41.359Z,65.40
2018-07-30T03:36:11.900Z,65.40
2018-07-30T03:38:42.250Z,65.60
2018-07-30T03:41:12.673Z,65.50
2018-07-30T03:43:42.872Z,65.60
2018-07-30T03:46:13.047Z,65.30
2018-07-30T03:48:43.166Z,65.00
2018-07-30T03:51:13.320Z,64.80
2018-07-30T03:53:43.423Z,64.30
2018-07-30T03:56:13.656Z,63.80
2018-07-30T03:58:43.953Z,63.70
2018-07-30T04:01:14.081Z,63.60
2018-07-30T04:03:44.228Z,63.70
2018-07-30T04:06:15.433Z,63.60
2018-07-30T04:08:45.507Z,63.70
2018-07-30T04:11:15.611Z,63.80
2018-07-30T04:13:45.823Z,63.80
2018-07-30T04:16:15.903Z,63.80
2018-07-30T04:18:46.207Z,64.10
2018-07-30T04:21:16.285Z,64.20
2018-07-30T04:23:46.403Z,64.30
2018-07-30T04:26:16.499Z,64.40
2018-07-30T04:28:47.296Z,64.40
2018-07-30T04:31:18.262Z,64.50
2018-07-30T04:33:48.502Z,64.50
2018-07-30T04:36:18.618Z,64.60
2018-07-30T04:38:48.694Z,64.70
2018-07-30T04:41:18.870Z,64.60
2018-07-30T04:43:49.067Z,64.80
2018-07-30T04:46:19.156Z,64.80
2018-07-30T04:48:49.259Z,65.20
2018-07-30T04:51:19.362Z,64.60
2018-07-30T04:53:49.500Z,64.60
2018-07-30T04:56:19.556Z,64.50
2018-07-30T04:58:49.727Z,64.30
2018-07-30T05:01:20.444Z,64.30
2018-07-30T05:03:50.593Z,64.30
2018-07-30T05:06:20.670Z,64.30
2018-07-30T05:11:21.211Z,64.20
2018-07-30T05:13:51.421Z,64.30
2018-07-30T05:16:21.589Z,64.20
2018-07-30T05:18:52.194Z,64.20
2018-07-30T05:21:22.693Z,64.20
2018-07-30T05:23:52.879Z,64.00
2018-07-30T05:26:22.929Z,64.10
2018-07-30T05:28:53.013Z,64.00
2018-07-30T05:31:23.205Z,64.10
2018-07-30T05:33:53.298Z,64.10
2018-07-30T05:36:24.129Z,64.00
2018-07-30T05:38:54.233Z,64.10
2018-07-30T05:41:24.461Z,63.80
2018-07-30T05:43:54.628Z,63.70
2018-07-30T05:46:24.791Z,63.60
2018-07-30T05:48:54.896Z,63.60
2018-07-30T05:51:25.087Z,63.60
2018-07-30T05:53:55.267Z,63.60
2018-07-30T05:56:25.372Z,63.70
2018-07-30T05:58:55.444Z,63.80
2018-07-30T06:01:26.444Z,63.90
2018-07-30T06:03:56.590Z,64.00
2018-07-30T06:06:26.678Z,64.10
2018-07-30T06:08:56.882Z,64.10
2018-07-30T06:11:27.027Z,64.20
2018-07-30T06:13:57.833Z,64.30
2018-07-30T06:16:27.980Z,64.50
2018-07-30T06:18:58.085Z,64.70
2018-07-30T06:21:28.133Z,64.60
2018-07-30T06:23:58.317Z,64.70
2018-07-30T06:26:28.580Z,65.10
2018-07-30T06:28:58.790Z,65.20
2018-07-30T06:31:28.904Z,64.90
2018-07-30T06:33:59.010Z,64.70
2018-07-30T06:36:29.204Z,64.50
2018-07-30T06:38:59.357Z,64.50
2018-07-30T06:41:29.559Z,64.40
2018-07-30T06:44:00.138Z,64.20
2018-07-30T06:46:30.457Z,64.00
2018-07-30T06:49:00.688Z,63.30
2018-07-30T06:51:31.410Z,63.20
2018-07-30T06:54:01.719Z,62.90
2018-07-30T06:56:31.819Z,62.70
2018-07-30T06:59:02.010Z,62.60
2018-07-30T07:01:32.226Z,62.30
2018-07-30T07:04:02.373Z,62.10
2018-07-30T07:06:32.533Z,62.10
2018-07-30T07:09:02.750Z,62.10
2018-07-30T07:11:32.868Z,62.20
2018-07-30T07:14:03.042Z,62.10
2018-07-30T07:16:33.278Z,61.80
2018-07-30T07:19:03.951Z,61.20
2018-07-30T07:21:34.197Z,60.60
2018-07-30T07:24:04.324Z,60.40
2018-07-30T07:26:34.430Z,60.10
2018-07-30T07:29:04.610Z,59.40
2018-07-30T07:31:35.308Z,58.90
2018-07-30T07:34:05.556Z,58.50
2018-07-30T07:36:35.658Z,57.80
2018-07-30T07:39:09.124Z,57.00
2018-07-30T07:41:39.267Z,56.50
2018-07-30T07:44:09.682Z,56.10
2018-07-30T07:46:39.791Z,55.80
2018-07-30T07:49:09.901Z,55.50
2018-07-30T07:51:40.104Z,54.90
2018-07-30T07:54:10.673Z,54.40
2018-07-30T07:56:40.798Z,54.20
2018-07-30T07:59:10.926Z,54.30
2018-07-30T08:01:40.999Z,54.10
2018-07-30T08:04:11.387Z,53.50
2018-07-30T08:06:41.551Z,53.10
2018-07-30T08:09:12.452Z,52.10
2018-07-30T08:11:42.577Z,51.60
2018-07-30T08:14:12.629Z,50.90
2018-07-30T08:16:42.728Z,50.50
2018-07-30T08:19:12.819Z,51.30
2018-07-30T08:21:42.915Z,51.10
2018-07-30T08:26:47.364Z,50.70
2018-07-30T08:29:17.623Z,50.20
2018-07-30T08:31:48.056Z,50.20
2018-07-30T08:34:18.821Z,49.50
2018-07-30T08:36:49.122Z,49.20
2018-07-30T08:39:19.438Z,48.70
2018-07-30T08:41:49.653Z,48.30
2018-07-30T08:44:20.026Z,48.70
2018-07-30T08:46:50.366Z,47.60
2018-07-30T08:49:20.638Z,47.40
2018-07-30T08:51:50.847Z,46.90
2018-07-30T08:54:21.013Z,46.90
2018-07-30T08:56:51.286Z,46.90
2018-07-30T08:59:21.948Z,46.40
2018-07-30T09:01:52.068Z,46.50
2018-07-30T09:04:22.745Z,46.10
2018-07-30T09:06:52.837Z,45.90
2018-07-30T09:09:22.908Z,45.60
2018-07-30T09:11:53.018Z,45.20
2018-07-30T09:14:23.519Z,45.30
2018-07-30T09:16:54.046Z,44.60
2018-07-30T09:19:24.185Z,44.40
2018-07-30T09:21:54.298Z,44.60
2018-07-30T09:24:24.438Z,44.90
2018-07-30T09:26:54.726Z,44.90
2018-07-30T09:29:24.896Z,44.60
2018-07-30T09:31:55.142Z,43.70
2018-07-30T09:34:25.446Z,43.70
2018-07-30T09:36:55.890Z,43.90
2018-07-30T09:39:26.049Z,43.70
2018-07-30T09:41:56.162Z,43.30
2018-07-30T09:44:27.293Z,43.10
2018-07-30T09:46:57.426Z,42.70
2018-07-30T09:49:27.645Z,41.30
2018-07-30T09:51:57.744Z,41.40
2018-07-30T09:54:31.966Z,41.50
2018-07-30T09:57:02.068Z,41.70
2018-07-30T09:59:32.190Z,41.20
2018-07-30T10:02:02.346Z,40.80
2018-07-30T10:04:32.888Z,40.80
2018-07-30T10:07:03.058Z,41.20
2018-07-30T10:09:33.176Z,40.80
2018-07-30T10:12:03.819Z,40.20
2018-07-30T10:14:33.927Z,40.50
2018-07-30T10:17:04.042Z,39.70
2018-07-30T10:19:34.230Z,39.40
2018-07-30T10:22:05.113Z,39.50
2018-07-30T10:24:35.258Z,39.20
2018-07-30T10:27:05.395Z,38.90
2018-07-30T10:29:35.516Z,38.70
2018-07-30T10:32:06.154Z,38.70
2018-07-30T10:34:36.455Z,38.80
2018-07-30T10:37:06.544Z,38.40
2018-07-30T10:39:36.724Z,38.10
2018-07-30T10:42:06.794Z,38.30
2018-07-30T10:44:36.908Z,38.00
2018-07-30T10:47:07.081Z,37.70
2018-07-30T10:49:37.252Z,37.20
2018-07-30T10:52:08.396Z,36.30
2018-07-30T10:54:38.551Z,36.80
2018-07-30T10:57:08.634Z,37.10
2018-07-30T10:59:39.299Z,37.80
2018-07-30T11:02:10.292Z,37.60
2018-07-30T11:07:13.234Z,37.40
2018-07-30T11:09:43.553Z,37.30
2018-07-30T11:12:13.534Z,36.90
2018-07-30T11:14:43.654Z,37.00
2018-07-30T11:17:13.815Z,37.20
2018-07-30T11:19:44.191Z,37.70
2018-07-30T11:22:14.277Z,38.00
2018-07-30T11:24:44.337Z,37.50
2018-07-30T11:27:14.593Z,37.60
2018-07-30T11:29:44.673Z,37.80
2018-07-30T11:32:14.779Z,37.60
2018-07-30T11:34:44.873Z,37.20
2018-07-30T11:37:15.012Z,37.00
2018-07-30T11:39:45.219Z,37.70
2018-07-30T11:42:15.399Z,37.00
2018-07-30T11:44:46.009Z,37.10
2018-07-30T11:47:16.670Z,37.30
2018-07-30T11:49:46.792Z,37.40
2018-07-30T11:52:16.959Z,36.60
2018-07-30T11:54:48.224Z,35.80
2018-07-30T11:57:18.403Z,35.60
2018-07-30T11:59:48.535Z,35.40
2018-07-30T12:02:19.355Z,34.80
2018-07-30T12:04:50.284Z,34.20
2018-07-30T12:07:21.966Z,33.80
2018-07-30T12:09:52.061Z,34.00
2018-07-30T12:12:22.193Z,33.90
2018-07-30T12:14:52.276Z,33.80
2018-07-30T12:17:22.377Z,33.90
2018-07-30T12:20:04.594Z,33.70
2018-07-30T12:22:34.645Z,33.10
2018-07-30T12:25:04.886Z,32.80
2018-07-30T12:27:35.003Z,32.60
2018-07-30T12:30:05.772Z,32.50
2018-07-30T12:32:35.907Z,32.80
2018-07-30T12:35:06.164Z,32.80
2018-07-30T12:37:36.244Z,34.00
2018-07-30T12:40:06.335Z,33.50
2018-07-30T12:42:37.161Z,33.80
2018-07-30T12:45:07.400Z,33.90
2018-07-30T12:47:37.591Z,34.30
2018-07-30T12:50:07.981Z,34.30
2018-07-30T12:52:38.939Z,34.30
2018-07-30T12:55:09.134Z,34.00
2018-07-30T12:57:40.274Z,33.80
2018-07-30T13:00:10.464Z,33.90
2018-07-30T13:02:40.613Z,34.20
2018-07-30T13:05:10.786Z,34.30
2018-07-30T13:07:40.964Z,34.50
2018-07-30T13:10:11.290Z,34.60
2018-07-30T13:12:41.580Z,34.30
2018-07-30T13:15:11.740Z,33.90
2018-07-30T13:17:41.908Z,33.20
2018-07-30T13:20:12.567Z,32.70
2018-07-30T13:22:43.212Z,31.90
2018-07-30T13:25:13.777Z,31.70
2018-07-30T13:27:43.966Z,31.90
2018-07-30T13:30:14.093Z,31.80
2018-07-30T13:32:44.982Z,31.90
2018-07-30T13:35:15.100Z,32.10
2018-07-30T13:37:45.252Z,32.60
2018-07-30T13:40:15.426Z,32.50
2018-07-30T13:42:45.628Z,31.80
2018-07-30T13:45:15.735Z,31.80
2018-07-30T13:47:45.964Z,31.80
2018-07-30T13:50:16.141Z,32.00
2018-07-30T13:52:46.293Z,32.40
2018-07-30T13:55:16.949Z,32.10
2018-07-30T13:57:47.001Z,32.00
2018-07-30T14:00:17.298Z,32.10
2018-07-30T14:02:47.533Z,32.00
2018-07-30T14:05:17.631Z,32.40
2018-07-30T14:07:47.780Z,33.00
2018-07-30T14:10:18.033Z,33.50
2018-07-30T14:12:48.242Z,33.20
2018-07-30T14:15:18.402Z,33.40
2018-07-30T14:17:48.625Z,33.70
2018-07-30T14:20:18.914Z,33.50
2018-07-30T14:22:49.032Z,33.50
2018-07-30T14:25:19.157Z,33.20
2018-07-30T14:27:49.258Z,31.60
2018-07-30T14:30:19.405Z,30.40
2018-07-30T14:32:49.546Z,30.00
2018-07-30T14:35:19.733Z,30.10
2018-07-30T14:37:49.922Z,29.20
2018-07-30T14:40:20.123Z,29.30
2018-07-30T14:42:50.279Z,29.30
2018-07-30T14:45:20.484Z,29.30
2018-07-30T14:47:50.600Z,29.30
2018-07-30T14:50:20.852Z,29.40
2018-07-30T14:52:51.188Z,29.40
2018-07-30T14:55:22.285Z,29.50
2018-07-30T14:57:52.378Z,28.80
2018-07-30T15:00:22.480Z,28.80
2018-07-30T15:02:53.209Z,28.30
2018-07-30T15:05:23.338Z,28.10
2018-07-30T15:07:53.632Z,28.10
2018-07-30T15:10:23.863Z,26.80
2018-07-30T15:12:54.834Z,24.60
2018-07-30T15:15:25.066Z,21.80
2018-07-30T15:17:55.257Z,19.50
2018-07-30T15:20:25.745Z,17.60
2018-07-30T15:22:55.937Z,16.20
2018-07-30T15:25:26.170Z,15.10
2018-07-30T15:27:56.364Z,14.10
2018-07-30T15:30:26.833Z,13.60
2018-07-30T15:32:56.875Z,14.10
2018-07-30T15:35:27.122Z,15.80
2018-07-30T15:37:57.277Z,17.00
2018-07-30T15:40:27.455Z,16.50
2018-07-30T15:42:57.513Z,16.00
2018-07-30T15:45:27.646Z,15.20
2018-07-30T15:47:57.776Z,15.70
2018-07-30T15:50:27.803Z,17.90
2018-07-30T15:52:58.503Z,19.20
2018-07-30T15:55:28.685Z,21.00
2018-07-30T15:57:58.919Z,20.20
2018-07-30T16:00:29.130Z,21.20
2018-07-30T16:02:59.313Z,20.20
2018-07-30T16:05:29.487Z,20.50
2018-07-30T16:07:59.915Z,21.40
2018-07-30T16:10:30.104Z,22.90
2018-07-30T16:13:00.282Z,24.60
2018-07-30T16:15:30.579Z,25.40
2018-07-30T16:18:00.735Z,25.90
2018-07-30T16:20:30.904Z,26.70
2018-07-30T16:23:01.005Z,27.10
2018-07-30T16:25:31.264Z,27.40
2018-07-30T16:28:01.355Z,26.50
2018-07-30T16:30:31.551Z,25.40
2018-07-30T16:33:01.700Z,25.30
2018-07-30T16:35:32.045Z,25.40
2018-07-30T16:38:02.205Z,26.00
2018-07-30T16:40:32.248Z,26.20
2018-07-30T16:43:03.751Z,26.50
2018-07-30T16:45:34.008Z,26.90
2018-07-30T16:48:04.244Z,27.60
2018-07-30T16:50:35.295Z,28.10
2018-07-30T16:53:05.705Z,28.40
2018-07-30T16:55:36.072Z,29.10
2018-07-30T16:58:07.389Z,29.80
2018-07-30T17:00:37.610Z,30.50
2018-07-30T17:03:08.685Z,31.00
2018-07-30T17:05:38.928Z,31.70
2018-07-30T17:10:39.346Z,33.30
2018-07-30T17:13:09.653Z,33.10
2018-07-30T17:15:39.789Z,33.50
2018-07-30T17:18:10.133Z,33.70
2018-07-30T17:20:40.219Z,34.10
2018-07-30T17:23:10.291Z,34.20
2018-07-30T17:25:40.411Z,34.70
2018-07-30T17:28:10.674Z,34.70
2018-07-30T17:30:40.905Z,35.00
2018-07-30T17:33:11.026Z,35.30
2018-07-30T17:35:41.235Z,35.90
2018-07-30T17:38:11.372Z,35.60
2018-07-30T17:40:41.497Z,36.00
2018-07-30T17:43:11.681Z,36.30
2018-07-30T17:45:41.964Z,36.30
2018-07-30T17:48:11.991Z,36.40
2018-07-30T17:50:42.249Z,37.00
2018-07-30T17:53:12.336Z,37.40
2018-07-30T17:55:42.575Z,37.90
2018-07-30T17:58:12.683Z,38.60
2018-07-30T18:00:42.871Z,39.30
2018-07-30T18:03:12.961Z,40.40
2018-07-30T18:05:43.047Z,41.50
2018-07-30T18:08:13.110Z,42.30
2018-07-30T18:10:43.213Z,43.20
2018-07-30T18:13:13.851Z,44.00
2018-07-30T18:15:44.028Z,44.60
2018-07-30T18:18:14.086Z,45.30
2018-07-30T18:20:44.336Z,45.90
2018-07-30T18:23:14.405Z,46.40
2018-07-30T18:25:44.533Z,46.70
2018-07-30T18:28:14.652Z,47.20
2018-07-30T18:30:44.723Z,47.70
2018-07-30T18:33:14.872Z,48.00
2018-07-30T18:35:45.094Z,48.40
2018-07-30T18:38:16.094Z,48.70
2018-07-30T18:40:46.339Z,49.10
2018-07-30T18:43:16.457Z,49.50
2018-07-30T18:45:46.710Z,50.50
2018-07-30T18:48:17.879Z,51.00
2018-07-30T18:50:48.091Z,50.80
2018-07-30T18:53:18.733Z,51.00
2018-07-30T18:55:49.206Z,51.50
2018-07-30T18:58:20.134Z,51.60
2018-07-30T19:00:50.403Z,51.70
2018-07-30T19:03:20.495Z,51.70
2018-07-30T19:05:50.661Z,51.90
2018-07-30T19:08:20.729Z,52.00
2018-07-30T19:13:20.597Z,52.20
2018-07-30T19:15:50.707Z,52.30
2018-07-30T19:18:20.893Z,52.50
2018-07-30T19:20:51.055Z,52.60
2018-07-30T19:23:21.202Z,52.30
2018-07-30T19:25:51.315Z,52.10
2018-07-30T19:28:21.377Z,51.70
2018-07-30T19:30:51.575Z,51.90
2018-07-30T19:33:21.726Z,52.30
2018-07-30T19:35:52.001Z,52.40
2018-07-30T19:38:22.207Z,52.50
2018-07-30T19:40:52.419Z,52.50
2018-07-30T19:43:22.549Z,52.50
2018-07-30T19:45:52.761Z,52.50
2018-07-30T19:48:24.789Z,53.10
2018-07-30T19:50:55.024Z,52.20
2018-07-30T19:53:25.893Z,51.70
2018-07-30T19:55:56.112Z,51.20
2018-07-30T19:58:26.396Z,51.20
2018-07-30T20:00:56.451Z,51.50
2018-07-30T20:03:26.579Z,51.90
2018-07-30T20:05:56.748Z,52.00
2018-07-30T20:08:26.852Z,52.20
2018-07-30T20:10:57.614Z,52.10
2018-07-30T20:13:27.768Z,52.20
2018-07-30T20:15:58.047Z,52.30
2018-07-30T20:18:28.351Z,52.10
2018-07-30T20:20:58.490Z,52.20
2018-07-30T20:23:28.704Z,52.10
2018-07-30T20:25:59.613Z,52.10
2018-07-30T20:28:30.198Z,52.20
2018-07-30T20:31:01.126Z,52.40
2018-07-30T20:33:31.626Z,52.40
2018-07-30T20:36:01.855Z,52.50
2018-07-30T20:38:32.171Z,52.50
2018-07-30T20:41:02.515Z,52.70
2018-07-30T20:43:32.835Z,52.70
2018-07-30T20:46:03.848Z,52.90
2018-07-30T20:48:33.993Z,53.20
2018-07-30T20:51:04.694Z,53.70
2018-07-30T20:53:34.916Z,54.10
2018-07-30T20:56:05.093Z,54.70
2018-07-30T20:58:35.162Z,55.10
2018-07-30T21:01:05.299Z,55.20
2018-07-30T21:03:35.554Z,55.40
2018-07-30T21:06:05.790Z,55.10
2018-07-30T21:08:35.912Z,55.20
2018-07-30T21:11:06.048Z,55.30
2018-07-30T21:13:36.220Z,55.40
2018-07-30T21:16:06.452Z,55.60
2018-07-30T21:18:36.880Z,55.90
2018-07-30T21:21:07.082Z,56.00
2018-07-30T21:23:37.409Z,55.70
2018-07-30T21:26:07.526Z,56.20
2018-07-30T21:28:37.619Z,55.50
2018-07-30T21:31:07.753Z,55.40
2018-07-30T21:33:37.836Z,55.40
2018-07-30T21:36:08.045Z,55.60
2018-07-30T21:38:38.178Z,55.70
2018-07-30T21:41:08.457Z,56.10
2018-07-30T21:43:38.605Z,56.20
2018-07-30T21:46:08.771Z,56.50
2018-07-30T21:48:39.063Z,56.60
2018-07-30T21:51:09.283Z,56.70
2018-07-30T21:53:39.371Z,57.00
2018-07-30T21:56:09.542Z,56.60
2018-07-30T21:58:39.691Z,56.60
2018-07-30T22:01:09.913Z,56.80
2018-07-30T22:03:40.073Z,57.00
2018-07-30T22:06:10.220Z,57.00
2018-07-30T22:08:40.403Z,57.10
2018-07-30T22:11:11.281Z,57.00
2018-07-30T22:13:41.572Z,57.00
2018-07-30T22:16:11.717Z,57.00
2018-07-30T22:18:41.866Z,56.90
2018-07-30T22:21:12.022Z,57.00
2018-07-30T22:23:42.086Z,57.00
2018-07-30T22:26:12.169Z,57.00
2018-07-30T22:28:42.339Z,57.10
2018-07-30T22:31:12.492Z,57.20
2018-07-30T22:33:42.675Z,57.70
2018-07-30T22:36:12.821Z,57.20
2018-07-30T22:38:43.892Z,57.20
2018-07-30T22:41:14.039Z,57.40
2018-07-30T22:43:44.244Z,57.70
2018-07-30T22:46:14.426Z,58.00
2018-07-30T22:48:44.649Z,58.40
2018-07-30T22:51:15.230Z,58.80
2018-07-30T22:53:45.700Z,59.10
2018-07-30T22:56:15.919Z,59.30
2018-07-30T22:58:45.984Z,59.20
2018-07-30T23:01:16.154Z,59.10
2018-07-30T23:06:15.946Z,59.00
2018-07-30T23:08:46.147Z,58.90
2018-07-30T23:11:16.411Z,58.60
2018-07-30T23:13:46.465Z,58.20
2018-07-30T23:16:16.574Z,57.90
2018-07-30T23:18:47.552Z,57.80
2018-07-30T23:21:17.788Z,57.50
2018-07-30T23:23:47.972Z,57.00
2018-07-30T23:26:18.086Z,56.50
2018-07-30T23:28:48.203Z,56.20
2018-07-30T23:31:18.991Z,56.00
2018-07-30T23:33:49.147Z,55.90
2018-07-30T23:36:19.305Z,56.00
2018-07-30T23:38:49.424Z,56.00
2018-07-30T23:41:19.804Z,56.10
2018-07-30T23:43:50.403Z,56.10
2018-07-30T23:46:20.415Z,56.20
2018-07-30T23:48:50.727Z,56.40
2018-07-30T23:51:21.599Z,56.60
2018-07-30T23:53:51.669Z,56.60
2018-07-30T23:56:22.227Z,56.90
2018-07-30T23:58:52.458Z,57.10
